createdAt,value
2017-11-15T00:00:50.514Z,12.23
2017-11-15T00:03:18.324Z,14.77
2017-11-15T00:05:45.870Z,18.47
2017-11-15T00:08:13.457Z,11.23
2017-11-15T00:10:40.997Z,12.73
2017-11-15T00:13:08.519Z,12.87
2017-11-15T00:15:37.137Z,15.83
2017-11-15T00:18:04.666Z,14.27
2017-11-15T00:20:32.166Z,13.47
2017-11-15T00:23:00.141Z,12.57
2017-11-15T00:25:27.658Z,11.20
2017-11-15T00:27:55.972Z,16.10
2017-11-15T00:30:23.482Z,10.07
2017-11-15T00:32:51.291Z,12.23
2017-11-15T00:35:18.853Z,11.70
2017-11-15T00:37:46.381Z,9.17
2017-11-15T00:40:13.944Z,18.20
2017-11-15T00:42:41.465Z,14.20
2017-11-15T00:45:09.002Z,12.63
2017-11-15T00:47:36.514Z,15.77
2017-11-15T00:50:04.099Z,16.10
2017-11-15T00:52:31.615Z,13.40
2017-11-15T00:54:59.439Z,15.20
2017-11-15T00:57:26.977Z,15.63
2017-11-15T00:59:54.553Z,16.97
2017-11-15T01:02:22.075Z,14.37
2017-11-15T01:04:49.592Z,13.87
2017-11-15T01:07:17.115Z,18.10
2017-11-15T01:09:44.638Z,20.17
2017-11-15T01:12:12.429Z,20.57
2017-11-15T01:14:41.514Z,18.70
2017-11-15T01:17:09.031Z,22.93
2017-11-15T01:19:36.561Z,22.73
2017-11-15T01:22:04.839Z,14.70
2017-11-15T01:24:32.400Z,16.17
2017-11-15T01:27:01.105Z,18.27
2017-11-15T01:29:28.978Z,16.63
2017-11-15T01:31:56.478Z,17.70
2017-11-15T01:34:24.008Z,19.90
2017-11-15T01:36:51.837Z,15.47
2017-11-15T01:39:20.119Z,17.63
2017-11-15T01:41:48.413Z,23.73
2017-11-15T01:44:15.943Z,20.27
2017-11-15T01:46:44.529Z,19.10
2017-11-15T01:49:17.657Z,17.03
2017-11-15T01:51:45.475Z,19.77
2017-11-15T01:54:13.016Z,18.20
2017-11-15T01:56:40.799Z,26.53
2017-11-15T01:59:08.349Z,21.77
2017-11-15T02:01:38.731Z,16.40
2017-11-15T02:04:06.262Z,19.97
2017-11-15T02:06:34.539Z,22.37
2017-11-15T02:09:03.100Z,21.77
2017-11-15T02:11:30.642Z,23.90
2017-11-15T02:13:58.167Z,20.33
2017-11-15T02:16:25.700Z,15.90
2017-11-15T02:18:54.008Z,18.87
2017-11-15T02:21:21.574Z,23.77
2017-11-15T02:23:49.081Z,23.80
2017-11-15T02:26:17.691Z,14.47
2017-11-15T02:28:45.977Z,20.90
2017-11-15T02:31:14.253Z,20.83
2017-11-15T02:33:41.811Z,19.73
2017-11-15T02:36:10.094Z,23.17
2017-11-15T02:38:38.404Z,20.07
2017-11-15T02:41:05.934Z,22.50
2017-11-15T02:43:34.242Z,17.50
2017-11-15T02:46:01.777Z,21.73
2017-11-15T02:48:29.280Z,25.00
2017-11-15T02:50:56.850Z,23.93
2017-11-15T02:53:24.375Z,23.73
2017-11-15T02:55:52.238Z,19.73
2017-11-15T02:58:19.753Z,15.93
2017-11-15T03:00:47.288Z,25.23
2017-11-15T03:03:15.634Z,17.30
2017-11-15T03:05:43.913Z,27.50
2017-11-15T03:08:11.470Z,27.77
2017-11-15T03:10:38.996Z,21.57
2017-11-15T03:13:07.651Z,24.03
2017-11-15T03:15:35.178Z,19.50
2017-11-15T03:18:02.708Z,22.70
2017-11-15T03:20:31.007Z,24.17
2017-11-15T03:22:58.517Z,22.27
2017-11-15T03:25:26.050Z,29.30
2017-11-15T03:27:53.604Z,23.27
2017-11-15T03:30:21.156Z,23.63
2017-11-15T03:32:48.690Z,27.87
2017-11-15T03:35:17.314Z,26.80
2017-11-15T03:37:44.850Z,23.63
2017-11-15T03:40:12.365Z,19.80
2017-11-15T03:42:39.924Z,22.47
2017-11-15T03:45:07.570Z,22.57
2017-11-15T03:47:35.119Z,23.73
2017-11-15T03:50:02.644Z,22.13
2017-11-15T03:52:31.301Z,22.27
2017-11-15T03:54:58.816Z,20.80
2017-11-15T03:57:26.359Z,27.47
2017-11-15T03:59:54.110Z,29.40
2017-11-15T04:02:22.393Z,22.83
2017-11-15T04:04:49.959Z,26.23
2017-11-15T04:07:18.226Z,20.37
2017-11-15T04:09:46.833Z,27.80
2017-11-15T04:12:14.369Z,23.47
2017-11-15T04:14:42.646Z,23.43
2017-11-15T04:17:10.941Z,25.20
2017-11-15T04:19:38.450Z,23.53
2017-11-15T04:22:06.003Z,26.27
2017-11-15T04:24:33.522Z,28.47
2017-11-15T04:27:01.396Z,24.17
2017-11-15T04:29:28.933Z,29.70
2017-11-15T04:31:57.222Z,21.40
2017-11-15T04:34:24.759Z,28.10
2017-11-15T04:36:52.276Z,26.53
2017-11-15T04:39:19.806Z,18.57
2017-11-15T04:41:47.329Z,23.87
2017-11-15T04:44:15.121Z,25.80
2017-11-15T04:46:42.658Z,19.77
2017-11-15T04:49:10.203Z,21.90
2017-11-15T04:51:37.774Z,19.20
2017-11-15T04:54:05.274Z,21.57
2017-11-15T04:56:32.813Z,23.77
2017-11-15T04:59:00.324Z,24.80
2017-11-15T05:01:28.124Z,17.40
2017-11-15T05:03:55.716Z,28.47
2017-11-15T05:06:23.237Z,25.13
2017-11-15T05:08:50.797Z,27.27
2017-11-15T05:11:18.366Z,18.60
2017-11-15T05:13:45.914Z,25.93
2017-11-15T05:16:13.439Z,26.20
2017-11-15T05:18:40.962Z,20.83
2017-11-15T05:21:09.322Z,24.10
2017-11-15T05:23:36.840Z,27.20
2017-11-15T05:26:04.381Z,23.50
2017-11-15T05:28:31.883Z,23.37
2017-11-15T05:30:59.401Z,21.27
2017-11-15T05:33:26.957Z,24.90
2017-11-15T05:35:54.471Z,22.10
2017-11-15T05:38:22.020Z,22.80
2017-11-15T05:40:49.575Z,23.87
2017-11-15T05:43:17.115Z,27.70
2017-11-15T05:45:44.680Z,26.10
2017-11-15T05:48:12.203Z,30.40
2017-11-15T05:50:40.510Z,24.90
2017-11-15T05:53:08.010Z,24.63
2017-11-15T05:55:35.574Z,20.57
2017-11-15T05:58:03.130Z,23.53
2017-11-15T06:00:30.664Z,21.00
2017-11-15T06:02:58.229Z,23.83
2017-11-15T06:05:25.765Z,20.80
2017-11-15T06:07:53.283Z,21.27
2017-11-15T06:10:21.029Z,23.67
2017-11-15T06:12:49.281Z,29.80
2017-11-15T06:15:17.139Z,23.90
2017-11-15T06:17:47.588Z,25.50
2017-11-15T06:20:15.415Z,21.30
2017-11-15T06:22:43.822Z,29.57
2017-11-15T06:25:11.362Z,26.97
2017-11-15T06:27:38.941Z,20.73
2017-11-15T06:30:06.417Z,35.07
2017-11-15T06:32:34.960Z,26.30
2017-11-15T06:35:03.297Z,25.27
2017-11-15T06:37:30.812Z,24.23
2017-11-15T06:39:58.370Z,24.80
2017-11-15T06:42:25.878Z,24.17
2017-11-15T06:44:53.393Z,24.53
2017-11-15T06:47:20.982Z,21.30
2017-11-15T06:49:49.545Z,15.93
2017-11-15T06:52:17.069Z,20.37
2017-11-15T06:54:44.589Z,21.27
2017-11-15T06:57:12.130Z,22.87
2017-11-15T06:59:39.711Z,21.50
2017-11-15T07:02:07.255Z,24.17
2017-11-15T07:04:34.766Z,22.07
2017-11-15T07:07:02.574Z,21.30
2017-11-15T07:09:30.128Z,20.37
2017-11-15T07:11:57.648Z,19.23
2017-11-15T07:14:25.187Z,20.53
2017-11-15T07:16:52.747Z,19.07
2017-11-15T07:19:20.284Z,24.97
2017-11-15T07:21:47.789Z,24.77
2017-11-15T07:24:15.296Z,21.50
2017-11-15T07:26:42.830Z,23.43
2017-11-15T07:29:11.107Z,21.43
2017-11-15T07:31:39.406Z,19.30
2017-11-15T07:34:06.913Z,25.00
2017-11-15T07:36:34.462Z,19.57
2017-11-15T07:39:02.001Z,25.10
2017-11-15T07:41:29.530Z,21.10
2017-11-15T07:43:58.107Z,19.70
2017-11-15T07:46:25.598Z,21.87
2017-11-15T07:48:53.118Z,20.83
2017-11-15T07:51:20.682Z,25.53
2017-11-15T07:53:48.958Z,23.93
2017-11-15T07:56:16.858Z,23.70
2017-11-15T07:58:44.359Z,23.60
2017-11-15T08:01:11.881Z,22.47
2017-11-15T08:03:40.218Z,21.27
2017-11-15T08:06:07.732Z,23.70
2017-11-15T08:08:35.272Z,26.40
2017-11-15T08:11:02.798Z,24.13
2017-11-15T08:13:30.712Z,24.07
2017-11-15T08:15:58.217Z,22.30
2017-11-15T08:18:26.061Z,31.63
2017-11-15T08:20:53.597Z,23.60
2017-11-15T08:23:21.108Z,21.07
2017-11-15T08:25:48.649Z,22.90
2017-11-15T08:28:16.162Z,25.20
2017-11-15T08:30:43.957Z,25.63
2017-11-15T08:33:11.470Z,31.17
2017-11-15T08:35:38.981Z,29.57
2017-11-15T08:38:06.514Z,23.90
2017-11-15T08:40:34.047Z,27.07
2017-11-15T08:43:02.344Z,21.87
2017-11-15T08:45:29.855Z,21.63
2017-11-15T08:47:57.416Z,17.23
2017-11-15T08:50:24.938Z,25.20
2017-11-15T08:52:52.818Z,25.30
2017-11-15T08:55:20.331Z,24.07
2017-11-15T08:57:48.608Z,19.87
2017-11-15T09:00:16.922Z,18.80
2017-11-15T09:02:44.435Z,17.63
2017-11-15T09:05:11.979Z,23.00
2017-11-15T09:07:39.507Z,20.97
2017-11-15T09:10:07.364Z,16.73
2017-11-15T09:12:34.877Z,18.57
2017-11-15T09:15:02.392Z,20.10
2017-11-15T09:17:29.934Z,17.40
2017-11-15T09:19:57.447Z,18.10
2017-11-15T09:22:25.005Z,16.37
2017-11-15T09:24:52.521Z,13.80
2017-11-15T09:27:20.388Z,16.80
2017-11-15T09:29:47.903Z,17.40
2017-11-15T09:32:15.421Z,16.77
2017-11-15T09:34:42.965Z,17.03
2017-11-15T09:37:10.476Z,19.13
2017-11-15T09:39:38.011Z,17.97
2017-11-15T09:42:05.529Z,18.27
2017-11-15T09:44:34.110Z,15.97
2017-11-15T09:47:02.576Z,18.07
2017-11-15T09:49:30.774Z,14.90
2017-11-15T09:51:59.123Z,14.47
2017-11-15T09:54:26.650Z,16.63
2017-11-15T09:56:54.236Z,17.07
2017-11-15T09:59:21.767Z,15.20
2017-11-15T10:01:49.581Z,16.00
2017-11-15T10:04:17.881Z,12.70
2017-11-15T10:06:45.388Z,16.40
2017-11-15T10:09:13.519Z,16.50
2017-11-15T10:11:41.014Z,17.00
2017-11-15T10:14:08.559Z,13.87
2017-11-15T10:16:36.072Z,17.43
2017-11-15T10:19:03.626Z,17.63
2017-11-15T10:21:31.131Z,17.00
2017-11-15T10:23:59.001Z,12.50
2017-11-15T10:26:26.517Z,15.90
2017-11-15T10:28:54.870Z,15.80
2017-11-15T10:31:22.414Z,14.13
2017-11-15T10:33:49.933Z,16.87
2017-11-15T10:36:18.254Z,14.17
2017-11-15T10:38:45.758Z,16.73
2017-11-15T10:41:13.685Z,16.80
2017-11-15T10:43:41.218Z,17.17
2017-11-15T10:46:08.743Z,14.90
2017-11-15T10:48:36.291Z,19.43
2017-11-15T10:51:03.814Z,15.83
2017-11-15T10:53:31.348Z,18.37
2017-11-15T10:55:59.645Z,17.50
2017-11-15T10:58:27.192Z,16.53
2017-11-15T11:00:54.739Z,13.70
2017-11-15T11:03:23.060Z,16.90
2017-11-15T11:05:50.585Z,18.17
2017-11-15T11:08:19.209Z,19.10
2017-11-15T11:10:46.727Z,19.13
2017-11-15T11:13:15.007Z,18.43
2017-11-15T11:15:43.299Z,18.23
2017-11-15T11:18:10.836Z,17.10
2017-11-15T11:20:39.146Z,15.13
2017-11-15T11:23:06.675Z,20.23
2017-11-15T11:25:35.285Z,17.83
2017-11-15T11:28:02.821Z,17.17
2017-11-15T11:30:30.359Z,17.63
2017-11-15T11:32:57.892Z,18.53
2017-11-15T11:35:25.405Z,19.33
2017-11-15T11:37:54.735Z,21.43
2017-11-15T11:40:22.300Z,15.63
2017-11-15T11:42:50.150Z,15.23
2017-11-15T11:45:17.672Z,16.50
2017-11-15T11:47:45.184Z,17.70
2017-11-15T11:50:12.725Z,19.30
2017-11-15T11:52:40.265Z,17.00
2017-11-15T11:55:08.571Z,17.70
2017-11-15T11:57:36.156Z,18.67
2017-11-15T12:00:03.992Z,19.10
2017-11-15T12:02:31.516Z,17.57
2017-11-15T12:04:59.038Z,17.53
2017-11-15T12:07:26.574Z,15.90
2017-11-15T12:09:54.092Z,15.30
2017-11-15T12:12:21.911Z,16.00
2017-11-15T12:14:49.419Z,18.03
2017-11-15T12:17:16.919Z,15.73
2017-11-15T12:19:44.460Z,15.57
2017-11-15T12:22:11.992Z,21.13
2017-11-15T12:24:39.562Z,17.40
2017-11-15T12:27:07.096Z,15.50
2017-11-15T12:29:34.664Z,18.27
2017-11-15T12:32:02.191Z,18.57
2017-11-15T12:34:30.794Z,18.93
2017-11-15T12:36:58.302Z,17.23
2017-11-15T12:39:26.575Z,18.40
2017-11-15T12:41:54.884Z,21.60
2017-11-15T12:44:22.399Z,17.50
2017-11-15T12:46:53.126Z,20.27
2017-11-15T12:49:20.648Z,18.83
2017-11-15T12:51:50.260Z,19.30
2017-11-15T12:54:26.613Z,19.83
2017-11-15T12:57:12.287Z,21.13
2017-11-15T13:02:46.559Z,20.23
2017-11-15T13:05:14.070Z,20.50
2017-11-15T13:07:41.617Z,19.87
2017-11-15T13:10:09.270Z,20.70
2017-11-15T13:12:37.774Z,21.20
2017-11-15T13:15:15.099Z,25.80
2017-11-15T13:17:42.760Z,19.83
2017-11-15T13:20:27.264Z,21.80
2017-11-15T13:22:54.923Z,21.60
2017-11-15T13:25:39.820Z,24.10
2017-11-15T13:28:08.278Z,20.87
2017-11-15T13:30:40.970Z,19.20
2017-11-15T13:33:08.611Z,17.83
2017-11-15T13:35:37.055Z,21.90
2017-11-15T13:38:04.664Z,21.73
2017-11-15T13:40:32.363Z,21.40
2017-11-15T13:43:12.764Z,25.10
2017-11-15T13:45:40.327Z,24.23
2017-11-15T13:48:08.158Z,20.13
2017-11-15T13:50:35.713Z,19.17
2017-11-15T13:53:04.052Z,18.43
2017-11-15T13:55:31.655Z,17.80
2017-11-15T13:57:59.196Z,18.10
2017-11-15T14:00:26.769Z,18.90
2017-11-15T14:02:55.104Z,21.50
2017-11-15T14:05:22.947Z,18.67
2017-11-15T14:07:50.475Z,16.73
2017-11-15T14:10:18.743Z,20.43
2017-11-15T14:12:47.237Z,23.13
2017-11-15T14:15:15.541Z,17.10
2017-11-15T14:17:43.110Z,18.00
2017-11-15T14:20:10.630Z,19.13
2017-11-15T14:22:38.946Z,20.33
2017-11-15T14:25:06.483Z,20.97
2017-11-15T14:27:34.031Z,18.57
2017-11-15T14:30:02.319Z,19.77
2017-11-15T14:32:30.200Z,24.03
2017-11-15T14:34:57.724Z,21.20
2017-11-15T14:37:26.921Z,18.80
2017-11-15T14:39:54.466Z,19.47
2017-11-15T14:42:21.995Z,19.40
2017-11-15T14:44:49.543Z,18.73
2017-11-15T14:47:17.128Z,23.53
2017-11-15T14:49:44.801Z,18.10
2017-11-15T14:52:12.310Z,18.67
2017-11-15T14:54:40.613Z,19.70
2017-11-15T14:57:08.209Z,17.90
2017-11-15T14:59:35.727Z,15.20
2017-11-15T15:02:03.342Z,17.37
2017-11-15T15:04:30.925Z,17.17
2017-11-15T15:06:59.224Z,18.23
2017-11-15T15:09:26.758Z,17.57
2017-11-15T15:11:55.389Z,19.43
2017-11-15T15:14:22.980Z,15.00
2017-11-15T15:16:50.503Z,20.23
2017-11-15T15:19:18.050Z,20.97
2017-11-15T15:21:46.431Z,20.73
2017-11-15T15:24:13.978Z,19.77
2017-11-15T15:26:42.266Z,18.67
2017-11-15T15:29:09.783Z,21.60
2017-11-15T15:31:37.472Z,21.70
2017-11-15T15:34:05.756Z,22.17
2017-11-15T15:36:33.322Z,18.53
2017-11-15T15:39:00.841Z,21.63
2017-11-15T15:41:29.131Z,18.10
2017-11-15T15:43:56.686Z,20.70
2017-11-15T15:46:24.204Z,15.37
2017-11-15T15:48:51.749Z,17.80
2017-11-15T15:51:19.262Z,20.43
2017-11-15T15:53:46.772Z,19.90
2017-11-15T15:56:14.322Z,18.93
2017-11-15T15:58:41.879Z,19.27
2017-11-15T16:01:09.437Z,17.37
2017-11-15T16:03:36.955Z,19.13
2017-11-15T16:06:05.263Z,17.30
2017-11-15T16:08:33.555Z,17.73
2017-11-15T16:11:01.098Z,18.80
2017-11-15T16:13:29.392Z,18.13
2017-11-15T16:15:56.906Z,20.23
2017-11-15T16:18:24.818Z,16.60
2017-11-15T16:20:53.122Z,19.70
2017-11-15T16:23:20.630Z,16.00
2017-11-15T16:25:48.169Z,20.67
2017-11-15T16:28:15.747Z,21.43
2017-11-15T16:30:43.313Z,21.27
2017-11-15T16:33:11.425Z,21.33
2017-11-15T16:35:38.948Z,18.30
2017-11-15T16:38:07.360Z,21.47
2017-11-15T16:40:34.971Z,21.37
2017-11-15T16:43:02.501Z,20.10
2017-11-15T16:45:30.039Z,17.43
2017-11-15T16:47:57.572Z,17.63
2017-11-15T16:50:25.921Z,16.03
2017-11-15T16:52:53.430Z,23.87
2017-11-15T16:55:21.716Z,21.90
2017-11-15T16:57:49.234Z,21.50
2017-11-15T17:00:16.772Z,17.80
2017-11-15T17:02:44.302Z,18.37
2017-11-15T17:05:11.902Z,19.07
2017-11-15T17:07:39.423Z,20.53
2017-11-15T17:10:06.974Z,20.43
2017-11-15T17:12:35.269Z,21.57
2017-11-15T17:15:02.808Z,21.90
2017-11-15T17:17:31.087Z,20.37
2017-11-15T17:19:59.395Z,21.90
2017-11-15T17:22:26.902Z,19.03
2017-11-15T17:24:55.344Z,24.40
2017-11-15T17:27:22.892Z,19.13
2017-11-15T17:29:50.424Z,16.97
2017-11-15T17:32:18.787Z,20.60
2017-11-15T17:34:46.356Z,22.67
2017-11-15T17:37:14.773Z,21.00
2017-11-15T17:39:42.362Z,19.60
2017-11-15T17:42:09.887Z,24.03
2017-11-15T17:44:37.575Z,23.00
2017-11-15T17:47:05.133Z,24.27
2017-11-15T17:49:32.693Z,22.77
2017-11-15T17:52:03.839Z,22.20
2017-11-15T17:54:31.885Z,22.10
2017-11-15T18:00:07.510Z,27.03
2017-11-15T18:05:29.790Z,30.83
2017-11-15T18:08:04.094Z,27.40
2017-11-15T18:10:50.523Z,40.20
2017-11-15T18:13:23.554Z,35.33
2017-11-15T18:21:13.612Z,34.30
2017-11-15T18:23:41.241Z,30.13
2017-11-15T18:26:16.645Z,32.97
2017-11-15T18:31:51.866Z,39.13
2017-11-15T18:34:19.493Z,35.57
2017-11-15T18:40:05.719Z,38.53
2017-11-15T18:45:24.573Z,31.53
2017-11-15T18:50:44.586Z,32.13
2017-11-15T18:59:30.066Z,28.07
2017-11-15T19:04:49.323Z,36.30
2017-11-15T19:07:17.101Z,44.17
2017-11-15T19:10:00.393Z,32.30
2017-11-15T19:12:33.456Z,34.77
2017-11-15T19:15:01.494Z,34.17
2017-11-15T19:17:32.029Z,38.10
2017-11-15T19:20:02.740Z,31.87
2017-11-15T19:22:30.335Z,33.93
2017-11-15T19:24:58.172Z,31.93
2017-11-15T19:27:25.812Z,28.03
2017-11-15T19:30:12.097Z,40.37
2017-11-15T19:32:45.667Z,35.83
2017-11-15T19:48:33.533Z,32.60
2017-11-15T19:51:01.700Z,27.73
2017-11-15T19:53:30.458Z,31.20
2017-11-15T19:55:58.210Z,32.40
2017-11-15T19:58:32.440Z,28.57
2017-11-15T20:01:00.896Z,34.20
2017-11-15T20:03:41.910Z,29.13
2017-11-15T20:06:10.042Z,25.40
2017-11-15T20:08:37.780Z,32.13
2017-11-15T20:11:05.507Z,32.77
2017-11-15T20:13:33.130Z,32.77
2017-11-15T20:16:00.728Z,32.47
2017-11-15T20:18:28.325Z,31.87
2017-11-15T20:20:56.111Z,29.53
2017-11-15T20:23:23.796Z,34.20
2017-11-15T20:25:51.409Z,30.90
2017-11-15T20:28:19.846Z,34.10
2017-11-15T20:30:48.402Z,28.80
2017-11-15T20:33:16.077Z,30.67
2017-11-15T20:35:43.734Z,30.77
2017-11-15T20:38:11.394Z,29.83
2017-11-15T20:40:38.934Z,32.77
2017-11-15T20:43:06.551Z,31.33
2017-11-15T20:45:34.189Z,27.43
2017-11-15T20:48:01.813Z,31.77
2017-11-15T20:50:29.363Z,34.80
2017-11-15T20:52:56.935Z,30.63
2017-11-15T20:55:24.494Z,29.63
2017-11-15T20:57:55.365Z,28.27
2017-11-15T21:00:22.990Z,32.90
2017-11-15T21:02:50.728Z,26.87
2017-11-15T21:05:18.431Z,30.57
2017-11-15T21:07:46.129Z,38.40
2017-11-15T21:10:13.751Z,31.40
2017-11-15T21:12:41.419Z,34.20
2017-11-15T21:15:09.089Z,29.77
2017-11-15T21:17:40.096Z,36.60
2017-11-15T21:20:07.699Z,33.80
2017-11-15T21:22:35.320Z,29.70
2017-11-15T21:25:03.675Z,31.37
2017-11-15T21:27:31.343Z,32.77
2017-11-15T21:29:59.048Z,28.60
2017-11-15T21:32:26.586Z,31.30
2017-11-15T21:34:54.905Z,30.60
2017-11-15T21:37:22.470Z,29.53
2017-11-15T21:39:50.100Z,32.10
2017-11-15T21:42:18.444Z,35.00
2017-11-15T21:44:46.040Z,35.73
2017-11-15T21:47:13.634Z,29.20
2017-11-15T21:49:41.196Z,30.80
2017-11-15T21:52:08.826Z,35.50
2017-11-15T21:54:37.145Z,36.53
2017-11-15T21:57:04.700Z,35.27
2017-11-15T21:59:32.298Z,35.03
2017-11-15T22:01:59.839Z,43.13
2017-11-15T22:04:27.440Z,33.87
2017-11-15T22:06:55.036Z,36.60
2017-11-15T22:09:22.647Z,43.60
2017-11-15T22:11:50.240Z,40.43
2017-11-15T22:14:17.798Z,32.40
2017-11-15T22:16:45.327Z,38.57
2017-11-15T22:19:12.894Z,41.10
2017-11-15T22:21:40.434Z,46.50
2017-11-15T22:24:08.252Z,43.93
2017-11-15T22:26:35.876Z,46.60
2017-11-15T22:29:03.438Z,42.30
2017-11-15T22:31:31.031Z,43.40
2017-11-15T22:33:58.584Z,37.67
2017-11-15T22:36:26.183Z,44.30
2017-11-15T22:38:53.706Z,39.73
2017-11-15T22:41:21.279Z,44.07
2017-11-15T22:43:48.818Z,38.83
2017-11-15T22:46:16.416Z,48.57
2017-11-15T22:48:43.979Z,48.20
2017-11-15T22:51:11.518Z,37.63
2017-11-15T22:53:42.191Z,43.73
2017-11-15T22:56:09.750Z,42.80
2017-11-15T22:58:37.360Z,41.07
2017-11-15T23:01:05.691Z,48.33
2017-11-15T23:03:33.209Z,41.30
2017-11-15T23:06:00.789Z,45.67
2017-11-15T23:08:28.356Z,48.77
2017-11-15T23:10:55.904Z,45.67
2017-11-15T23:13:23.422Z,40.70
2017-11-15T23:15:50.980Z,45.87
2017-11-15T23:18:18.503Z,44.63
2017-11-15T23:20:46.061Z,47.77
2017-11-15T23:23:13.592Z,50.50
2017-11-15T23:25:41.154Z,43.83
2017-11-15T23:28:09.424Z,41.90
2017-11-15T23:30:37.809Z,38.73
2017-11-15T23:33:06.628Z,43.27
2017-11-15T23:35:34.184Z,45.23
2017-11-15T23:38:01.718Z,43.90
2017-11-15T23:40:30.029Z,48.30
2017-11-15T23:42:57.551Z,38.93
2017-11-15T23:45:25.086Z,47.20
2017-11-15T23:47:52.659Z,45.93
2017-11-15T23:50:20.998Z,46.80
2017-11-15T23:52:54.499Z,43.13
2017-11-15T23:55:22.030Z,47.73
2017-11-15T23:57:49.566Z,43.60
